Levelock, Alaska
Current Conditions -  °F | °C
As of 9:56 AM on Friday 24 Oct 2014 (Local Time) from PFWS Reporting Station
Overcast Overcast  
Wind Chill: 24°   Ceiling: 7500
Heat Index: 31°   Visibility: 10mi
Dew Point: 31°   Wind: 7mph
Humidity: 100%   Direction: 310°NW
Pressure: 29.93"   Gusts: NA
Location:  59.11°N, 156.87°W
Report Text: PFWS 241756Z AUTO 31006KT 10SM OVC075 M01/M01 A2993 RMK AO2 SLP141 60000 T10061006 10039 21006 51023 FZRANO
Loading
Personal Weather Stations






























Interactive Weather Map
Tropical Storm Tracking
New forecast layout! Learn more

10-Day Weather Forecast

Advertisements
Track Severe Weather on mobile